sensor_id;sensor_type;location;lat;lon;timestamp;temperature;humidity
72865;DHT22;61000;48.120;11.548;2022-08-16T00:01:48;19.20;78.90
72865;DHT22;61000;48.120;11.548;2022-08-16T00:04:16;19.10;78.90
72865;DHT22;61000;48.120;11.548;2022-08-16T00:06:43;19.10;79.00
72865;DHT22;61000;48.120;11.548;2022-08-16T00:09:11;19.10;79.30
72865;DHT22;61000;48.120;11.548;2022-08-16T00:11:39;19.10;79.50
72865;DHT22;61000;48.120;11.548;2022-08-16T00:14:09;19.10;79.50
72865;DHT22;61000;48.120;11.548;2022-08-16T00:16:37;19.10;79.80
72865;DHT22;61000;48.120;11.548;2022-08-16T00:19:04;19.10;79.70
72865;DHT22;61000;48.120;11.548;2022-08-16T00:21:31;19.10;79.90
72865;DHT22;61000;48.120;11.548;2022-08-16T00:23:59;19.10;79.70
72865;DHT22;61000;48.120;11.548;2022-08-16T00:26:27;19.10;80.20
72865;DHT22;61000;48.120;11.548;2022-08-16T00:28:54;19.10;80.40
72865;DHT22;61000;48.120;11.548;2022-08-16T00:31:21;19.00;80.70
72865;DHT22;61000;48.120;11.548;2022-08-16T00:33:48;19.00;80.90
72865;DHT22;61000;48.120;11.548;2022-08-16T00:36:15;19.00;81.00
72865;DHT22;61000;48.120;11.548;2022-08-16T00:38:42;19.00;81.00
72865;DHT22;61000;48.120;11.548;2022-08-16T00:41:09;19.00;81.00
72865;DHT22;61000;48.120;11.548;2022-08-16T00:43:38;19.00;81.00
72865;DHT22;61000;48.120;11.548;2022-08-16T00:46:11;19.00;81.10
72865;DHT22;61000;48.120;11.548;2022-08-16T00:48:39;19.00;81.10
72865;DHT22;61000;48.120;11.548;2022-08-16T00:51:07;19.00;81.20
72865;DHT22;61000;48.120;11.548;2022-08-16T00:53:34;18.90;81.30
72865;DHT22;61000;48.120;11.548;2022-08-16T00:56:12;18.90;81.50
72865;DHT22;61000;48.120;11.548;2022-08-16T00:58:44;18.90;81.50
72865;DHT22;61000;48.120;11.548;2022-08-16T01:01:12;18.90;81.60
72865;DHT22;61000;48.120;11.548;2022-08-16T01:03:41;18.90;81.60
72865;DHT22;61000;48.120;11.548;2022-08-16T01:06:09;18.90;81.60
72865;DHT22;61000;48.120;11.548;2022-08-16T01:08:37;18.90;81.50
72865;DHT22;61000;48.120;11.548;2022-08-16T01:11:06;18.90;81.20
72865;DHT22;61000;48.120;11.548;2022-08-16T01:13:35;18.90;81.00
72865;DHT22;61000;48.120;11.548;2022-08-16T01:16:06;19.00;81.10
72865;DHT22;61000;48.120;11.548;2022-08-16T01:18:40;19.00;80.90
72865;DHT22;61000;48.120;11.548;2022-08-16T01:21:20;19.00;81.00
72865;DHT22;61000;48.120;11.548;2022-08-16T01:24:02;19.00;80.90
72865;DHT22;61000;48.120;11.548;2022-08-16T01:26:32;19.00;80.90
72865;DHT22;61000;48.120;11.548;2022-08-16T01:29:04;18.90;80.70
72865;DHT22;61000;48.120;11.548;2022-08-16T01:31:32;18.90;80.70
72865;DHT22;61000;48.120;11.548;2022-08-16T01:33:59;18.90;80.80
72865;DHT22;61000;48.120;11.548;2022-08-16T01:36:27;18.90;80.50
72865;DHT22;61000;48.120;11.548;2022-08-16T01:38:56;19.00;80.40
72865;DHT22;61000;48.120;11.548;2022-08-16T01:41:27;19.00;80.40
72865;DHT22;61000;48.120;11.548;2022-08-16T01:43:56;19.00;80.30
72865;DHT22;61000;48.120;11.548;2022-08-16T01:46:29;19.00;80.10
72865;DHT22;61000;48.120;11.548;2022-08-16T01:49:01;18.90;79.90
72865;DHT22;61000;48.120;11.548;2022-08-16T01:51:29;18.90;79.90
72865;DHT22;61000;48.120;11.548;2022-08-16T01:53:58;18.90;79.60
72865;DHT22;61000;48.120;11.548;2022-08-16T01:56:28;18.90;79.50
72865;DHT22;61000;48.120;11.548;2022-08-16T01:58:58;18.90;79.40
72865;DHT22;61000;48.120;11.548;2022-08-16T02:01:27;18.90;79.20
72865;DHT22;61000;48.120;11.548;2022-08-16T02:03:54;18.90;79.30
72865;DHT22;61000;48.120;11.548;2022-08-16T02:06:22;18.90;79.20
72865;DHT22;61000;48.120;11.548;2022-08-16T02:08:51;18.90;79.10
72865;DHT22;61000;48.120;11.548;2022-08-16T02:11:22;18.90;78.90
72865;DHT22;61000;48.120;11.548;2022-08-16T02:13:49;18.90;78.70
72865;DHT22;61000;48.120;11.548;2022-08-16T02:16:17;18.90;78.80
72865;DHT22;61000;48.120;11.548;2022-08-16T02:18:45;18.90;78.70
72865;DHT22;61000;48.120;11.548;2022-08-16T02:21:12;18.90;78.70
72865;DHT22;61000;48.120;11.548;2022-08-16T02:23:40;18.90;78.70
72865;DHT22;61000;48.120;11.548;2022-08-16T02:26:07;18.80;78.70
72865;DHT22;61000;48.120;11.548;2022-08-16T02:28:36;18.80;78.80
72865;DHT22;61000;48.120;11.548;2022-08-16T02:31:06;18.80;78.70
72865;DHT22;61000;48.120;11.548;2022-08-16T02:33:33;18.80;78.90
72865;DHT22;61000;48.120;11.548;2022-08-16T02:36:00;18.90;78.90
72865;DHT22;61000;48.120;11.548;2022-08-16T02:38:30;18.90;78.70
72865;DHT22;61000;48.120;11.548;2022-08-16T02:41:00;18.90;78.90
72865;DHT22;61000;48.120;11.548;2022-08-16T02:43:31;18.80;78.80
72865;DHT22;61000;48.120;11.548;2022-08-16T02:46:06;18.80;78.90
72865;DHT22;61000;48.120;11.548;2022-08-16T02:48:35;18.80;79.10
72865;DHT22;61000;48.120;11.548;2022-08-16T02:51:04;18.70;79.20
72865;DHT22;61000;48.120;11.548;2022-08-16T02:53:34;18.70;79.40
72865;DHT22;61000;48.120;11.548;2022-08-16T02:56:02;18.70;80.30
72865;DHT22;61000;48.120;11.548;2022-08-16T02:58:29;18.60;80.10
72865;DHT22;61000;48.120;11.548;2022-08-16T03:00:57;18.60;80.30
72865;DHT22;61000;48.120;11.548;2022-08-16T03:03:27;18.60;80.90
72865;DHT22;61000;48.120;11.548;2022-08-16T03:05:54;18.50;81.60
72865;DHT22;61000;48.120;11.548;2022-08-16T03:08:23;18.50;81.30
72865;DHT22;61000;48.120;11.548;2022-08-16T03:10:50;18.50;81.30
72865;DHT22;61000;48.120;11.548;2022-08-16T03:13:18;18.40;81.50
72865;DHT22;61000;48.120;11.548;2022-08-16T03:15:46;18.30;81.70
72865;DHT22;61000;48.120;11.548;2022-08-16T03:18:13;18.30;81.90
72865;DHT22;61000;48.120;11.548;2022-08-16T03:20:42;18.30;81.80
72865;DHT22;61000;48.120;11.548;2022-08-16T03:23:09;18.30;81.90
72865;DHT22;61000;48.120;11.548;2022-08-16T03:25:36;18.20;81.80
72865;DHT22;61000;48.120;11.548;2022-08-16T03:28:07;18.20;82.10
72865;DHT22;61000;48.120;11.548;2022-08-16T03:30:37;18.20;82.00
72865;DHT22;61000;48.120;11.548;2022-08-16T03:33:06;18.10;82.00
72865;DHT22;61000;48.120;11.548;2022-08-16T03:35:39;18.10;82.00
72865;DHT22;61000;48.120;11.548;2022-08-16T03:38:22;18.00;82.20
72865;DHT22;61000;48.120;11.548;2022-08-16T03:40:51;18.00;81.60
72865;DHT22;61000;48.120;11.548;2022-08-16T03:43:21;17.90;82.50
72865;DHT22;61000;48.120;11.548;2022-08-16T03:45:51;17.90;82.60
72865;DHT22;61000;48.120;11.548;2022-08-16T03:48:25;17.80;82.60
72865;DHT22;61000;48.120;11.548;2022-08-16T03:50:53;17.80;82.90
72865;DHT22;61000;48.120;11.548;2022-08-16T03:53:21;17.80;83.00
72865;DHT22;61000;48.120;11.548;2022-08-16T03:55:48;17.80;83.50
72865;DHT22;61000;48.120;11.548;2022-08-16T03:58:15;17.70;83.70
72865;DHT22;61000;48.120;11.548;2022-08-16T04:00:43;17.70;83.80
72865;DHT22;61000;48.120;11.548;2022-08-16T04:03:14;17.70;84.30
72865;DHT22;61000;48.120;11.548;2022-08-16T04:05:44;17.70;85.30
72865;DHT22;61000;48.120;11.548;2022-08-16T04:08:12;17.70;85.30
72865;DHT22;61000;48.120;11.548;2022-08-16T04:10:41;17.60;86.20
72865;DHT22;61000;48.120;11.548;2022-08-16T04:13:08;17.60;86.90
72865;DHT22;61000;48.120;11.548;2022-08-16T04:15:35;17.50;87.90
72865;DHT22;61000;48.120;11.548;2022-08-16T04:18:21;17.40;89.00
72865;DHT22;61000;48.120;11.548;2022-08-16T04:20:52;17.40;89.80
72865;DHT22;61000;48.120;11.548;2022-08-16T04:23:24;17.30;90.00
72865;DHT22;61000;48.120;11.548;2022-08-16T04:25:53;17.30;90.20
72865;DHT22;61000;48.120;11.548;2022-08-16T04:28:20;17.20;90.50
72865;DHT22;61000;48.120;11.548;2022-08-16T04:30:47;17.20;90.60
72865;DHT22;61000;48.120;11.548;2022-08-16T04:33:14;17.10;90.60
72865;DHT22;61000;48.120;11.548;2022-08-16T04:35:42;17.20;90.80
72865;DHT22;61000;48.120;11.548;2022-08-16T04:38:10;17.20;90.80
72865;DHT22;61000;48.120;11.548;2022-08-16T04:40:41;17.20;90.80
72865;DHT22;61000;48.120;11.548;2022-08-16T04:43:11;17.10;90.90
72865;DHT22;61000;48.120;11.548;2022-08-16T04:45:38;17.10;91.00
72865;DHT22;61000;48.120;11.548;2022-08-16T04:48:11;17.10;91.10
72865;DHT22;61000;48.120;11.548;2022-08-16T04:50:48;17.00;91.20
72865;DHT22;61000;48.120;11.548;2022-08-16T04:53:18;17.00;91.40
72865;DHT22;61000;48.120;11.548;2022-08-16T04:55:48;17.10;91.40
72865;DHT22;61000;48.120;11.548;2022-08-16T04:58:16;17.10;91.40
72865;DHT22;61000;48.120;11.548;2022-08-16T05:00:43;17.10;91.30
72865;DHT22;61000;48.120;11.548;2022-08-16T05:03:14;17.00;91.30
72865;DHT22;61000;48.120;11.548;2022-08-16T05:05:44;17.00;91.30
72865;DHT22;61000;48.120;11.548;2022-08-16T05:08:14;17.00;91.40
72865;DHT22;61000;48.120;11.548;2022-08-16T05:10:45;17.00;91.30
72865;DHT22;61000;48.120;11.548;2022-08-16T05:13:12;17.00;91.40
72865;DHT22;61000;48.120;11.548;2022-08-16T05:15:41;17.00;91.50
72865;DHT22;61000;48.120;11.548;2022-08-16T05:18:08;16.90;91.40
72865;DHT22;61000;48.120;11.548;2022-08-16T05:20:43;17.00;91.80
72865;DHT22;61000;48.120;11.548;2022-08-16T05:23:11;16.90;91.30
72865;DHT22;61000;48.120;11.548;2022-08-16T05:25:39;16.90;91.30
72865;DHT22;61000;48.120;11.548;2022-08-16T05:28:09;17.00;91.50
72865;DHT22;61000;48.120;11.548;2022-08-16T05:30:45;17.10;91.20
72865;DHT22;61000;48.120;11.548;2022-08-16T05:33:19;17.20;91.20
72865;DHT22;61000;48.120;11.548;2022-08-16T05:35:48;17.20;91.10
72865;DHT22;61000;48.120;11.548;2022-08-16T05:38:23;17.20;91.20
72865;DHT22;61000;48.120;11.548;2022-08-16T05:40:54;17.30;90.90
72865;DHT22;61000;48.120;11.548;2022-08-16T05:43:24;17.30;90.70
72865;DHT22;61000;48.120;11.548;2022-08-16T05:45:53;17.40;90.80
72865;DHT22;61000;48.120;11.548;2022-08-16T05:48:20;17.40;90.60
72865;DHT22;61000;48.120;11.548;2022-08-16T05:50:59;17.40;90.50
72865;DHT22;61000;48.120;11.548;2022-08-16T05:53:26;17.50;90.80
72865;DHT22;61000;48.120;11.548;2022-08-16T05:56:08;17.60;90.10
72865;DHT22;61000;48.120;11.548;2022-08-16T05:58:39;17.60;90.00
72865;DHT22;61000;48.120;11.548;2022-08-16T06:01:09;17.60;89.40
72865;DHT22;61000;48.120;11.548;2022-08-16T06:03:39;17.70;89.10
72865;DHT22;61000;48.120;11.548;2022-08-16T06:06:13;17.70;88.90
72865;DHT22;61000;48.120;11.548;2022-08-16T06:08:41;17.90;88.70
72865;DHT22;61000;48.120;11.548;2022-08-16T06:11:08;17.90;88.20
72865;DHT22;61000;48.120;11.548;2022-08-16T06:13:36;18.00;87.80
72865;DHT22;61000;48.120;11.548;2022-08-16T06:16:03;18.00;87.40
72865;DHT22;61000;48.120;11.548;2022-08-16T06:18:32;18.10;87.50
72865;DHT22;61000;48.120;11.548;2022-08-16T06:20:59;18.10;87.30
72865;DHT22;61000;48.120;11.548;2022-08-16T06:23:26;18.30;86.60
72865;DHT22;61000;48.120;11.548;2022-08-16T06:25:59;18.30;87.00
72865;DHT22;61000;48.120;11.548;2022-08-16T06:28:32;18.30;85.60
72865;DHT22;61000;48.120;11.548;2022-08-16T06:31:00;18.40;85.40
72865;DHT22;61000;48.120;11.548;2022-08-16T06:33:29;18.50;84.80
72865;DHT22;61000;48.120;11.548;2022-08-16T06:35:58;18.60;84.00
72865;DHT22;61000;48.120;11.548;2022-08-16T06:38:27;18.60;83.80
72865;DHT22;61000;48.120;11.548;2022-08-16T06:40:54;18.70;83.70
72865;DHT22;61000;48.120;11.548;2022-08-16T06:43:21;18.80;83.00
72865;DHT22;61000;48.120;11.548;2022-08-16T06:45:57;18.90;82.80
72865;DHT22;61000;48.120;11.548;2022-08-16T06:48:27;19.00;82.40
72865;DHT22;61000;48.120;11.548;2022-08-16T06:50:54;19.10;81.90
72865;DHT22;61000;48.120;11.548;2022-08-16T06:53:24;19.20;80.90
72865;DHT22;61000;48.120;11.548;2022-08-16T06:55:57;19.20;80.70
72865;DHT22;61000;48.120;11.548;2022-08-16T06:58:31;19.30;80.40
72865;DHT22;61000;48.120;11.548;2022-08-16T07:01:04;19.50;79.30
72865;DHT22;61000;48.120;11.548;2022-08-16T07:03:32;19.50;79.00
72865;DHT22;61000;48.120;11.548;2022-08-16T07:06:03;19.70;77.60
72865;DHT22;61000;48.120;11.548;2022-08-16T07:08:40;19.80;76.90
72865;DHT22;61000;48.120;11.548;2022-08-16T07:11:08;19.80;77.00
72865;DHT22;61000;48.120;11.548;2022-08-16T07:13:35;19.90;76.20
72865;DHT22;61000;48.120;11.548;2022-08-16T07:16:04;20.00;75.20
72865;DHT22;61000;48.120;11.548;2022-08-16T07:18:33;20.10;74.60
72865;DHT22;61000;48.120;11.548;2022-08-16T07:21:00;20.20;74.40
72865;DHT22;61000;48.120;11.548;2022-08-16T07:23:31;20.30;72.20
72865;DHT22;61000;48.120;11.548;2022-08-16T07:26:00;20.40;71.10
72865;DHT22;61000;48.120;11.548;2022-08-16T07:28:27;20.50;71.60
72865;DHT22;61000;48.120;11.548;2022-08-16T07:30:55;20.50;71.10
72865;DHT22;61000;48.120;11.548;2022-08-16T07:33:32;20.60;69.50
72865;DHT22;61000;48.120;11.548;2022-08-16T07:36:00;20.70;69.10
72865;DHT22;61000;48.120;11.548;2022-08-16T07:38:30;20.90;67.40
72865;DHT22;61000;48.120;11.548;2022-08-16T07:40:57;21.00;66.90
72865;DHT22;61000;48.120;11.548;2022-08-16T07:43:26;21.10;65.30
72865;DHT22;61000;48.120;11.548;2022-08-16T07:45:54;21.10;65.30
72865;DHT22;61000;48.120;11.548;2022-08-16T07:48:21;21.20;65.80
72865;DHT22;61000;48.120;11.548;2022-08-16T07:50:52;21.30;65.60
72865;DHT22;61000;48.120;11.548;2022-08-16T07:53:19;21.50;64.10
72865;DHT22;61000;48.120;11.548;2022-08-16T07:55:46;21.50;64.00
72865;DHT22;61000;48.120;11.548;2022-08-16T07:58:14;21.60;64.10
72865;DHT22;61000;48.120;11.548;2022-08-16T08:00:43;21.60;63.10
72865;DHT22;61000;48.120;11.548;2022-08-16T08:03:10;21.70;62.30
72865;DHT22;61000;48.120;11.548;2022-08-16T08:05:38;21.90;62.20
72865;DHT22;61000;48.120;11.548;2022-08-16T08:08:07;22.00;61.50
72865;DHT22;61000;48.120;11.548;2022-08-16T08:10:34;22.10;60.60
72865;DHT22;61000;48.120;11.548;2022-08-16T08:13:01;22.20;59.80
72865;DHT22;61000;48.120;11.548;2022-08-16T08:15:28;22.30;59.70
72865;DHT22;61000;48.120;11.548;2022-08-16T08:17:57;22.30;60.30
72865;DHT22;61000;48.120;11.548;2022-08-16T08:20:31;22.40;60.00
72865;DHT22;61000;48.120;11.548;2022-08-16T08:23:00;22.40;59.00
72865;DHT22;61000;48.120;11.548;2022-08-16T08:25:39;22.60;58.40
72865;DHT22;61000;48.120;11.548;2022-08-16T08:28:06;22.60;58.20
72865;DHT22;61000;48.120;11.548;2022-08-16T08:30:34;22.70;58.50
72865;DHT22;61000;48.120;11.548;2022-08-16T08:33:03;22.70;57.80
72865;DHT22;61000;48.120;11.548;2022-08-16T08:35:38;22.90;57.90
72865;DHT22;61000;48.120;11.548;2022-08-16T08:38:07;23.00;57.20
72865;DHT22;61000;48.120;11.548;2022-08-16T08:40:39;23.10;56.90
72865;DHT22;61000;48.120;11.548;2022-08-16T08:43:06;23.10;57.40
72865;DHT22;61000;48.120;11.548;2022-08-16T08:45:38;23.10;56.90
72865;DHT22;61000;48.120;11.548;2022-08-16T08:48:07;23.10;57.10
72865;DHT22;61000;48.120;11.548;2022-08-16T08:50:35;23.20;56.50
72865;DHT22;61000;48.120;11.548;2022-08-16T08:53:03;23.40;55.80
72865;DHT22;61000;48.120;11.548;2022-08-16T08:55:31;23.50;55.80
72865;DHT22;61000;48.120;11.548;2022-08-16T08:57:58;23.60;55.20
72865;DHT22;61000;48.120;11.548;2022-08-16T09:00:35;23.70;55.10
72865;DHT22;61000;48.120;11.548;2022-08-16T09:03:06;23.80;54.60
72865;DHT22;61000;48.120;11.548;2022-08-16T09:05:36;23.90;53.60
72865;DHT22;61000;48.120;11.548;2022-08-16T09:08:06;24.00;53.50
72865;DHT22;61000;48.120;11.548;2022-08-16T09:10:43;24.20;52.90
72865;DHT22;61000;48.120;11.548;2022-08-16T09:13:11;24.30;52.50
72865;DHT22;61000;48.120;11.548;2022-08-16T09:15:44;24.50;52.80
72865;DHT22;61000;48.120;11.548;2022-08-16T09:18:15;24.70;51.60
72865;DHT22;61000;48.120;11.548;2022-08-16T09:20:44;24.90;50.60
72865;DHT22;61000;48.120;11.548;2022-08-16T09:23:11;25.40;51.10
72865;DHT22;61000;48.120;11.548;2022-08-16T09:25:42;25.80;49.30
72865;DHT22;61000;48.120;11.548;2022-08-16T09:28:13;26.50;47.60
72865;DHT22;61000;48.120;11.548;2022-08-16T09:30:45;27.50;44.60
72865;DHT22;61000;48.120;11.548;2022-08-16T09:33:15;28.20;42.70
72865;DHT22;61000;48.120;11.548;2022-08-16T09:38:11;29.30;39.50
72865;DHT22;61000;48.120;11.548;2022-08-16T09:40:39;29.80;38.60
72865;DHT22;61000;48.120;11.548;2022-08-16T09:43:06;30.50;37.90
72865;DHT22;61000;48.120;11.548;2022-08-16T09:45:33;30.70;38.10
72865;DHT22;61000;48.120;11.548;2022-08-16T09:48:04;30.90;36.90
72865;DHT22;61000;48.120;11.548;2022-08-16T09:50:33;31.60;37.10
72865;DHT22;61000;48.120;11.548;2022-08-16T09:53:01;32.00;35.50
72865;DHT22;61000;48.120;11.548;2022-08-16T09:55:28;32.30;33.90
72865;DHT22;61000;48.120;11.548;2022-08-16T09:57:55;32.60;33.60
72865;DHT22;61000;48.120;11.548;2022-08-16T10:00:23;32.90;33.30
72865;DHT22;61000;48.120;11.548;2022-08-16T10:02:51;32.90;32.40
72865;DHT22;61000;48.120;11.548;2022-08-16T10:05:18;33.40;32.40
72865;DHT22;61000;48.120;11.548;2022-08-16T10:07:47;33.10;31.70
72865;DHT22;61000;48.120;11.548;2022-08-16T10:10:18;32.90;32.20
72865;DHT22;61000;48.120;11.548;2022-08-16T10:12:45;33.10;31.70
72865;DHT22;61000;48.120;11.548;2022-08-16T10:15:30;32.80;32.60
72865;DHT22;61000;48.120;11.548;2022-08-16T10:17:58;33.10;31.90
72865;DHT22;61000;48.120;11.548;2022-08-16T10:20:25;33.00;33.00
72865;DHT22;61000;48.120;11.548;2022-08-16T10:22:54;33.20;31.70
72865;DHT22;61000;48.120;11.548;2022-08-16T10:25:21;33.60;31.70
72865;DHT22;61000;48.120;11.548;2022-08-16T10:27:48;33.40;31.00
72865;DHT22;61000;48.120;11.548;2022-08-16T10:30:16;33.20;31.70
72865;DHT22;61000;48.120;11.548;2022-08-16T10:32:43;33.10;32.10
72865;DHT22;61000;48.120;11.548;2022-08-16T10:35:10;32.90;32.70
72865;DHT22;61000;48.120;11.548;2022-08-16T10:37:37;32.60;32.20
72865;DHT22;61000;48.120;11.548;2022-08-16T10:40:09;32.10;33.10
72865;DHT22;61000;48.120;11.548;2022-08-16T10:42:36;31.90;33.70
72865;DHT22;61000;48.120;11.548;2022-08-16T10:45:03;31.40;34.10
72865;DHT22;61000;48.120;11.548;2022-08-16T10:47:30;31.00;34.70
72865;DHT22;61000;48.120;11.548;2022-08-16T10:49:57;30.70;35.30
72865;DHT22;61000;48.120;11.548;2022-08-16T10:52:25;30.50;36.40
72865;DHT22;61000;48.120;11.548;2022-08-16T10:54:52;30.40;35.90
72865;DHT22;61000;48.120;11.548;2022-08-16T10:57:20;29.70;36.90
72865;DHT22;61000;48.120;11.548;2022-08-16T10:59:47;29.50;38.20
72865;DHT22;61000;48.120;11.548;2022-08-16T11:02:14;29.20;38.00
72865;DHT22;61000;48.120;11.548;2022-08-16T11:04:41;29.00;38.60
72865;DHT22;61000;48.120;11.548;2022-08-16T11:07:11;28.50;39.20
72865;DHT22;61000;48.120;11.548;2022-08-16T11:09:38;28.30;39.30
72865;DHT22;61000;48.120;11.548;2022-08-16T11:12:05;28.50;39.00
72865;DHT22;61000;48.120;11.548;2022-08-16T11:14:34;28.50;37.80
72865;DHT22;61000;48.120;11.548;2022-08-16T11:17:02;28.70;37.60
72865;DHT22;61000;48.120;11.548;2022-08-16T11:19:30;28.70;37.80
72865;DHT22;61000;48.120;11.548;2022-08-16T11:21:57;28.80;37.90
72865;DHT22;61000;48.120;11.548;2022-08-16T11:24:25;28.60;38.00
72865;DHT22;61000;48.120;11.548;2022-08-16T11:26:52;28.40;38.50
72865;DHT22;61000;48.120;11.548;2022-08-16T11:29:19;28.00;39.20
72865;DHT22;61000;48.120;11.548;2022-08-16T11:31:48;27.80;39.50
72865;DHT22;61000;48.120;11.548;2022-08-16T11:34:15;27.50;39.40
72865;DHT22;61000;48.120;11.548;2022-08-16T11:36:41;27.60;39.70
72865;DHT22;61000;48.120;11.548;2022-08-16T11:39:08;27.70;39.10
72865;DHT22;61000;48.120;11.548;2022-08-16T11:41:35;27.90;39.30
72865;DHT22;61000;48.120;11.548;2022-08-16T11:44:03;27.80;39.60
72865;DHT22;61000;48.120;11.548;2022-08-16T11:46:31;27.90;39.50
72865;DHT22;61000;48.120;11.548;2022-08-16T11:49:02;28.00;38.60
72865;DHT22;61000;48.120;11.548;2022-08-16T11:51:29;28.00;38.10
72865;DHT22;61000;48.120;11.548;2022-08-16T11:53:56;28.00;38.60
72865;DHT22;61000;48.120;11.548;2022-08-16T11:56:24;28.20;38.60
72865;DHT22;61000;48.120;11.548;2022-08-16T11:58:50;28.40;37.80
72865;DHT22;61000;48.120;11.548;2022-08-16T12:01:17;28.40;37.70
72865;DHT22;61000;48.120;11.548;2022-08-16T12:03:44;28.20;37.50
72865;DHT22;61000;48.120;11.548;2022-08-16T12:06:15;28.20;38.00
72865;DHT22;61000;48.120;11.548;2022-08-16T12:08:44;28.50;37.30
72865;DHT22;61000;48.120;11.548;2022-08-16T12:11:12;28.50;35.80
72865;DHT22;61000;48.120;11.548;2022-08-16T12:13:40;28.70;36.40
72865;DHT22;61000;48.120;11.548;2022-08-16T12:16:08;28.90;36.10
72865;DHT22;61000;48.120;11.548;2022-08-16T12:18:36;29.20;35.90
72865;DHT22;61000;48.120;11.548;2022-08-16T12:21:03;29.40;34.70
72865;DHT22;61000;48.120;11.548;2022-08-16T12:23:31;29.20;33.90
72865;DHT22;61000;48.120;11.548;2022-08-16T12:25:59;29.40;34.20
72865;DHT22;61000;48.120;11.548;2022-08-16T12:28:26;29.60;33.50
72865;DHT22;61000;48.120;11.548;2022-08-16T12:30:53;29.50;33.20
72865;DHT22;61000;48.120;11.548;2022-08-16T12:33:20;29.70;34.00
72865;DHT22;61000;48.120;11.548;2022-08-16T12:35:47;29.70;32.70
72865;DHT22;61000;48.120;11.548;2022-08-16T12:38:15;29.80;33.10
72865;DHT22;61000;48.120;11.548;2022-08-16T12:40:46;30.00;32.90
72865;DHT22;61000;48.120;11.548;2022-08-16T12:43:17;29.70;32.90
72865;DHT22;61000;48.120;11.548;2022-08-16T12:45:48;29.50;33.30
72865;DHT22;61000;48.120;11.548;2022-08-16T12:48:18;29.40;33.30
72865;DHT22;61000;48.120;11.548;2022-08-16T12:51:04;29.60;33.30
72865;DHT22;61000;48.120;11.548;2022-08-16T12:53:32;29.70;33.20
72865;DHT22;61000;48.120;11.548;2022-08-16T12:56:05;29.90;32.80
72865;DHT22;61000;48.120;11.548;2022-08-16T12:58:32;30.20;32.00
72865;DHT22;61000;48.120;11.548;2022-08-16T13:00:59;30.50;31.00
72865;DHT22;61000;48.120;11.548;2022-08-16T13:03:26;30.40;31.00
72865;DHT22;61000;48.120;11.548;2022-08-16T13:05:54;30.50;31.30
72865;DHT22;61000;48.120;11.548;2022-08-16T13:08:21;30.30;31.10
72865;DHT22;61000;48.120;11.548;2022-08-16T13:10:49;30.50;31.30
72865;DHT22;61000;48.120;11.548;2022-08-16T13:13:22;30.40;31.00
72865;DHT22;61000;48.120;11.548;2022-08-16T13:15:51;30.30;31.40
72865;DHT22;61000;48.120;11.548;2022-08-16T13:18:19;30.50;31.60
72865;DHT22;61000;48.120;11.548;2022-08-16T13:20:47;30.40;31.70
72865;DHT22;61000;48.120;11.548;2022-08-16T13:23:15;30.40;31.60
72865;DHT22;61000;48.120;11.548;2022-08-16T13:25:44;30.50;31.80
72865;DHT22;61000;48.120;11.548;2022-08-16T13:28:12;30.70;30.80
72865;DHT22;61000;48.120;11.548;2022-08-16T13:30:44;30.50;31.20
72865;DHT22;61000;48.120;11.548;2022-08-16T13:33:13;30.00;32.30
72865;DHT22;61000;48.120;11.548;2022-08-16T13:35:43;29.70;32.90
72865;DHT22;61000;48.120;11.548;2022-08-16T13:38:12;29.20;33.10
72865;DHT22;61000;48.120;11.548;2022-08-16T13:40:40;29.30;33.30
72865;DHT22;61000;48.120;11.548;2022-08-16T13:43:07;29.70;33.30
72865;DHT22;61000;48.120;11.548;2022-08-16T13:45:34;29.80;32.60
72865;DHT22;61000;48.120;11.548;2022-08-16T13:48:03;29.90;32.50
72865;DHT22;61000;48.120;11.548;2022-08-16T13:50:31;30.00;32.40
72865;DHT22;61000;48.120;11.548;2022-08-16T13:52:58;29.90;31.90
72865;DHT22;61000;48.120;11.548;2022-08-16T13:55:25;30.20;31.80
72865;DHT22;61000;48.120;11.548;2022-08-16T13:57:52;30.10;31.50
72865;DHT22;61000;48.120;11.548;2022-08-16T14:00:20;30.20;31.50
72865;DHT22;61000;48.120;11.548;2022-08-16T14:02:47;30.40;31.30
72865;DHT22;61000;48.120;11.548;2022-08-16T14:05:15;30.40;31.00
72865;DHT22;61000;48.120;11.548;2022-08-16T14:07:42;30.60;31.20
72865;DHT22;61000;48.120;11.548;2022-08-16T14:10:11;30.60;30.60
72865;DHT22;61000;48.120;11.548;2022-08-16T14:12:39;30.60;30.60
72865;DHT22;61000;48.120;11.548;2022-08-16T14:15:09;30.50;30.70
72865;DHT22;61000;48.120;11.548;2022-08-16T14:17:37;30.50;31.40
72865;DHT22;61000;48.120;11.548;2022-08-16T14:20:04;30.70;30.90
72865;DHT22;61000;48.120;11.548;2022-08-16T14:22:35;30.80;30.40
72865;DHT22;61000;48.120;11.548;2022-08-16T14:25:07;30.90;30.00
72865;DHT22;61000;48.120;11.548;2022-08-16T14:27:36;30.60;30.00
72865;DHT22;61000;48.120;11.548;2022-08-16T14:30:05;30.70;30.00
72865;DHT22;61000;48.120;11.548;2022-08-16T14:32:32;30.50;29.80
72865;DHT22;61000;48.120;11.548;2022-08-16T14:35:00;30.20;30.20
72865;DHT22;61000;48.120;11.548;2022-08-16T14:37:27;30.10;30.20
72865;DHT22;61000;48.120;11.548;2022-08-16T14:39:56;30.30;30.50
72865;DHT22;61000;48.120;11.548;2022-08-16T14:42:24;30.20;30.70
72865;DHT22;61000;48.120;11.548;2022-08-16T14:44:51;29.80;31.10
72865;DHT22;61000;48.120;11.548;2022-08-16T14:47:18;29.80;31.50
72865;DHT22;61000;48.120;11.548;2022-08-16T14:49:46;29.90;31.50
72865;DHT22;61000;48.120;11.548;2022-08-16T14:52:15;30.00;31.20
72865;DHT22;61000;48.120;11.548;2022-08-16T14:54:43;30.00;31.00
72865;DHT22;61000;48.120;11.548;2022-08-16T14:57:12;30.00;31.00
72865;DHT22;61000;48.120;11.548;2022-08-16T14:59:40;30.00;31.00
72865;DHT22;61000;48.120;11.548;2022-08-16T15:02:10;29.70;31.10
72865;DHT22;61000;48.120;11.548;2022-08-16T15:04:40;29.60;31.40
72865;DHT22;61000;48.120;11.548;2022-08-16T15:07:08;29.50;30.80
72865;DHT22;61000;48.120;11.548;2022-08-16T15:09:35;29.60;31.20
72865;DHT22;61000;48.120;11.548;2022-08-16T15:12:05;29.70;32.50
72865;DHT22;61000;48.120;11.548;2022-08-16T15:14:35;29.90;31.50
72865;DHT22;61000;48.120;11.548;2022-08-16T15:17:02;30.00;31.10
72865;DHT22;61000;48.120;11.548;2022-08-16T15:19:29;30.10;31.30
72865;DHT22;61000;48.120;11.548;2022-08-16T15:21:57;30.10;31.50
72865;DHT22;61000;48.120;11.548;2022-08-16T15:24:24;30.00;31.10
72865;DHT22;61000;48.120;11.548;2022-08-16T15:26:51;30.00;31.40
72865;DHT22;61000;48.120;11.548;2022-08-16T15:29:18;29.80;31.10